sensor_id;sensor_type;location;lat;lon;timestamp;P1;durP1;ratioP1;P2;durP2;ratioP2
11078;SDS011;5592;49.234;7.268;2024-01-15T00:00:43;34.37;;;11.70;;
11078;SDS011;5592;49.234;7.268;2024-01-15T00:03:11;31.43;;;11.57;;
11078;SDS011;5592;49.234;7.268;2024-01-15T00:05:36;34.60;;;10.00;;
11078;SDS011;5592;49.234;7.268;2024-01-15T00:08:03;30.50;;;11.37;;
11078;SDS011;5592;49.234;7.268;2024-01-15T00:10:29;39.03;;;12.30;;
11078;SDS011;5592;49.234;7.268;2024-01-15T00:12:55;32.17;;;10.10;;
11078;SDS011;5592;49.234;7.268;2024-01-15T00:15:22;37.73;;;11.97;;
11078;SDS011;5592;49.234;7.268;2024-01-15T00:17:47;37.50;;;12.10;;
11078;SDS011;5592;49.234;7.268;2024-01-15T00:20:13;40.40;;;13.60;;
11078;SDS011;5592;49.234;7.268;2024-01-15T00:22:39;28.53;;;10.53;;
11078;SDS011;5592;49.234;7.268;2024-01-15T00:25:05;42.57;;;13.10;;
11078;SDS011;5592;49.234;7.268;2024-01-15T00:27:30;35.07;;;12.93;;
11078;SDS011;5592;49.234;7.268;2024-01-15T00:29:56;43.77;;;13.47;;
11078;SDS011;5592;49.234;7.268;2024-01-15T00:32:22;42.57;;;13.97;;
11078;SDS011;5592;49.234;7.268;2024-01-15T00:34:47;51.80;;;14.27;;
11078;SDS011;5592;49.234;7.268;2024-01-15T00:37:13;42.73;;;14.17;;
11078;SDS011;5592;49.234;7.268;2024-01-15T00:39:39;43.53;;;12.87;;
11078;SDS011;5592;49.234;7.268;2024-01-15T00:42:04;51.23;;;15.30;;
11078;SDS011;5592;49.234;7.268;2024-01-15T00:44:31;36.57;;;13.80;;
11078;SDS011;5592;49.234;7.268;2024-01-15T00:46:57;40.60;;;13.23;;
11078;SDS011;5592;49.234;7.268;2024-01-15T00:49:22;44.57;;;15.40;;
11078;SDS011;5592;49.234;7.268;2024-01-15T00:51:48;43.30;;;13.77;;
11078;SDS011;5592;49.234;7.268;2024-01-15T00:54:13;43.80;;;14.70;;
11078;SDS011;5592;49.234;7.268;2024-01-15T00:56:39;38.50;;;13.60;;
11078;SDS011;5592;49.234;7.268;2024-01-15T00:59:07;40.87;;;14.57;;
11078;SDS011;5592;49.234;7.268;2024-01-15T01:01:35;38.87;;;12.40;;
11078;SDS011;5592;49.234;7.268;2024-01-15T01:04:02;40.43;;;12.40;;
11078;SDS011;5592;49.234;7.268;2024-01-15T01:06:28;46.70;;;14.10;;
11078;SDS011;5592;49.234;7.268;2024-01-15T01:08:54;39.53;;;12.90;;
11078;SDS011;5592;49.234;7.268;2024-01-15T01:11:20;43.07;;;14.03;;
11078;SDS011;5592;49.234;7.268;2024-01-15T01:13:45;41.67;;;13.00;;
11078;SDS011;5592;49.234;7.268;2024-01-15T01:16:11;43.70;;;13.37;;
11078;SDS011;5592;49.234;7.268;2024-01-15T01:18:36;42.83;;;12.83;;
11078;SDS011;5592;49.234;7.268;2024-01-15T01:21:02;45.93;;;14.30;;
11078;SDS011;5592;49.234;7.268;2024-01-15T01:23:28;36.70;;;12.90;;
11078;SDS011;5592;49.234;7.268;2024-01-15T01:25:53;36.07;;;13.67;;
11078;SDS011;5592;49.234;7.268;2024-01-15T01:28:19;47.40;;;14.27;;
11078;SDS011;5592;49.234;7.268;2024-01-15T01:30:45;43.40;;;13.83;;
11078;SDS011;5592;49.234;7.268;2024-01-15T01:33:10;36.50;;;12.10;;
11078;SDS011;5592;49.234;7.268;2024-01-15T01:35:36;47.17;;;13.73;;
11078;SDS011;5592;49.234;7.268;2024-01-15T01:38:02;42.97;;;14.30;;
11078;SDS011;5592;49.234;7.268;2024-01-15T01:40:27;51.50;;;15.40;;
11078;SDS011;5592;49.234;7.268;2024-01-15T01:42:53;35.80;;;13.97;;
11078;SDS011;5592;49.234;7.268;2024-01-15T01:45:20;42.80;;;12.67;;
11078;SDS011;5592;49.234;7.268;2024-01-15T01:47:45;31.20;;;11.93;;
11078;SDS011;5592;49.234;7.268;2024-01-15T01:50:12;40.50;;;14.00;;
11078;SDS011;5592;49.234;7.268;2024-01-15T01:52:38;40.10;;;14.60;;
11078;SDS011;5592;49.234;7.268;2024-01-15T01:55:07;36.70;;;12.97;;
11078;SDS011;5592;49.234;7.268;2024-01-15T01:57:36;42.63;;;13.00;;
11078;SDS011;5592;49.234;7.268;2024-01-15T02:00:02;36.90;;;14.50;;
11078;SDS011;5592;49.234;7.268;2024-01-15T02:02:29;32.07;;;12.90;;
11078;SDS011;5592;49.234;7.268;2024-01-15T02:04:58;33.70;;;13.27;;
11078;SDS011;5592;49.234;7.268;2024-01-15T02:07:24;39.60;;;12.50;;
11078;SDS011;5592;49.234;7.268;2024-01-15T02:09:49;39.40;;;13.13;;
11078;SDS011;5592;49.234;7.268;2024-01-15T02:12:15;35.33;;;12.93;;
11078;SDS011;5592;49.234;7.268;2024-01-15T02:14:41;41.57;;;13.40;;
11078;SDS011;5592;49.234;7.268;2024-01-15T02:17:07;44.90;;;13.70;;
11078;SDS011;5592;49.234;7.268;2024-01-15T02:19:32;34.43;;;11.70;;
11078;SDS011;5592;49.234;7.268;2024-01-15T02:21:58;39.13;;;12.00;;
11078;SDS011;5592;49.234;7.268;2024-01-15T02:24:24;45.47;;;15.07;;
11078;SDS011;5592;49.234;7.268;2024-01-15T02:26:50;35.70;;;13.23;;
11078;SDS011;5592;49.234;7.268;2024-01-15T02:29:16;38.80;;;13.10;;
11078;SDS011;5592;49.234;7.268;2024-01-15T02:31:42;35.77;;;13.00;;
11078;SDS011;5592;49.234;7.268;2024-01-15T02:34:08;39.40;;;12.20;;
11078;SDS011;5592;49.234;7.268;2024-01-15T02:36:34;34.30;;;12.93;;
11078;SDS011;5592;49.234;7.268;2024-01-15T02:38:59;46.97;;;13.30;;
11078;SDS011;5592;49.234;7.268;2024-01-15T02:41:25;36.33;;;12.10;;
11078;SDS011;5592;49.234;7.268;2024-01-15T02:43:50;35.47;;;11.87;;
11078;SDS011;5592;49.234;7.268;2024-01-15T02:46:16;44.97;;;12.70;;
11078;SDS011;5592;49.234;7.268;2024-01-15T02:48:42;40.03;;;12.40;;
11078;SDS011;5592;49.234;7.268;2024-01-15T02:51:07;38.53;;;12.20;;
11078;SDS011;5592;49.234;7.268;2024-01-15T02:53:33;31.00;;;12.53;;
11078;SDS011;5592;49.234;7.268;2024-01-15T02:56:01;34.00;;;11.40;;
11078;SDS011;5592;49.234;7.268;2024-01-15T02:58:26;33.00;;;11.93;;
11078;SDS011;5592;49.234;7.268;2024-01-15T03:00:52;28.43;;;10.80;;
11078;SDS011;5592;49.234;7.268;2024-01-15T03:03:17;34.63;;;12.27;;
11078;SDS011;5592;49.234;7.268;2024-01-15T03:05:43;34.80;;;11.37;;
11078;SDS011;5592;49.234;7.268;2024-01-15T03:08:08;31.17;;;10.83;;
11078;SDS011;5592;49.234;7.268;2024-01-15T03:10:34;31.77;;;11.40;;
11078;SDS011;5592;49.234;7.268;2024-01-15T03:13:00;39.50;;;12.67;;
11078;SDS011;5592;49.234;7.268;2024-01-15T03:15:25;30.10;;;11.23;;
11078;SDS011;5592;49.234;7.268;2024-01-15T03:17:51;31.30;;;11.47;;
11078;SDS011;5592;49.234;7.268;2024-01-15T03:20:17;38.13;;;13.27;;
11078;SDS011;5592;49.234;7.268;2024-01-15T03:22:43;31.43;;;10.60;;
11078;SDS011;5592;49.234;7.268;2024-01-15T03:25:08;37.17;;;11.70;;
11078;SDS011;5592;49.234;7.268;2024-01-15T03:27:34;35.40;;;12.20;;
11078;SDS011;5592;49.234;7.268;2024-01-15T03:30:00;39.40;;;12.87;;
11078;SDS011;5592;49.234;7.268;2024-01-15T03:32:27;34.90;;;11.97;;
11078;SDS011;5592;49.234;7.268;2024-01-15T03:34:52;28.43;;;11.43;;
11078;SDS011;5592;49.234;7.268;2024-01-15T03:37:18;33.23;;;12.90;;
11078;SDS011;5592;49.234;7.268;2024-01-15T03:39:44;34.53;;;12.67;;
11078;SDS011;5592;49.234;7.268;2024-01-15T03:42:10;35.50;;;13.60;;
11078;SDS011;5592;49.234;7.268;2024-01-15T03:44:35;39.90;;;13.47;;
11078;SDS011;5592;49.234;7.268;2024-01-15T03:47:01;33.80;;;11.50;;
11078;SDS011;5592;49.234;7.268;2024-01-15T03:49:27;35.90;;;13.17;;
11078;SDS011;5592;49.234;7.268;2024-01-15T03:51:52;39.60;;;11.73;;
11078;SDS011;5592;49.234;7.268;2024-01-15T03:54:18;35.57;;;11.47;;
11078;SDS011;5592;49.234;7.268;2024-01-15T03:56:43;35.90;;;12.97;;
11078;SDS011;5592;49.234;7.268;2024-01-15T03:59:09;30.33;;;11.40;;
11078;SDS011;5592;49.234;7.268;2024-01-15T04:01:35;31.27;;;11.90;;
11078;SDS011;5592;49.234;7.268;2024-01-15T04:04:00;27.13;;;11.60;;
11078;SDS011;5592;49.234;7.268;2024-01-15T04:06:28;35.57;;;13.10;;
11078;SDS011;5592;49.234;7.268;2024-01-15T04:08:53;29.43;;;12.53;;
11078;SDS011;5592;49.234;7.268;2024-01-15T04:11:19;29.17;;;12.43;;
11078;SDS011;5592;49.234;7.268;2024-01-15T04:13:45;32.67;;;11.80;;
11078;SDS011;5592;49.234;7.268;2024-01-15T04:16:10;32.23;;;13.13;;
11078;SDS011;5592;49.234;7.268;2024-01-15T04:18:36;35.30;;;12.53;;
11078;SDS011;5592;49.234;7.268;2024-01-15T04:21:03;32.03;;;13.07;;
11078;SDS011;5592;49.234;7.268;2024-01-15T04:23:30;27.47;;;10.77;;
11078;SDS011;5592;49.234;7.268;2024-01-15T04:25:56;38.33;;;13.57;;
11078;SDS011;5592;49.234;7.268;2024-01-15T04:28:22;34.73;;;13.97;;
11078;SDS011;5592;49.234;7.268;2024-01-15T04:30:48;31.70;;;12.57;;
11078;SDS011;5592;49.234;7.268;2024-01-15T04:33:13;32.30;;;12.20;;
11078;SDS011;5592;49.234;7.268;2024-01-15T04:35:42;29.83;;;11.97;;
11078;SDS011;5592;49.234;7.268;2024-01-15T04:38:07;30.77;;;12.37;;
11078;SDS011;5592;49.234;7.268;2024-01-15T04:40:33;26.43;;;11.87;;
11078;SDS011;5592;49.234;7.268;2024-01-15T04:42:58;31.93;;;13.73;;
11078;SDS011;5592;49.234;7.268;2024-01-15T04:45:24;30.33;;;11.97;;
11078;SDS011;5592;49.234;7.268;2024-01-15T04:47:53;30.87;;;12.37;;
11078;SDS011;5592;49.234;7.268;2024-01-15T04:50:23;42.77;;;14.60;;
11078;SDS011;5592;49.234;7.268;2024-01-15T04:52:51;29.30;;;12.13;;
11078;SDS011;5592;49.234;7.268;2024-01-15T04:55:17;28.23;;;11.47;;
11078;SDS011;5592;49.234;7.268;2024-01-15T04:57:42;28.13;;;12.10;;
11078;SDS011;5592;49.234;7.268;2024-01-15T05:00:09;35.43;;;12.30;;
11078;SDS011;5592;49.234;7.268;2024-01-15T05:02:35;32.97;;;12.53;;
11078;SDS011;5592;49.234;7.268;2024-01-15T05:05:00;43.17;;;13.40;;
11078;SDS011;5592;49.234;7.268;2024-01-15T05:07:26;40.50;;;13.80;;
11078;SDS011;5592;49.234;7.268;2024-01-15T05:09:52;34.63;;;14.33;;
11078;SDS011;5592;49.234;7.268;2024-01-15T05:12:17;37.00;;;13.67;;
11078;SDS011;5592;49.234;7.268;2024-01-15T05:14:46;33.80;;;14.03;;
11078;SDS011;5592;49.234;7.268;2024-01-15T05:17:11;31.33;;;13.17;;
11078;SDS011;5592;49.234;7.268;2024-01-15T05:19:37;28.93;;;12.80;;
11078;SDS011;5592;49.234;7.268;2024-01-15T05:22:05;29.10;;;12.80;;
11078;SDS011;5592;49.234;7.268;2024-01-15T05:24:31;31.70;;;14.20;;
11078;SDS011;5592;49.234;7.268;2024-01-15T05:26:57;32.57;;;12.67;;
11078;SDS011;5592;49.234;7.268;2024-01-15T05:29:22;34.80;;;12.80;;
11078;SDS011;5592;49.234;7.268;2024-01-15T05:31:48;28.73;;;11.50;;
11078;SDS011;5592;49.234;7.268;2024-01-15T05:34:14;31.87;;;13.23;;
11078;SDS011;5592;49.234;7.268;2024-01-15T05:36:39;34.93;;;12.73;;
11078;SDS011;5592;49.234;7.268;2024-01-15T05:39:05;35.37;;;12.43;;
11078;SDS011;5592;49.234;7.268;2024-01-15T05:41:30;40.67;;;14.80;;
11078;SDS011;5592;49.234;7.268;2024-01-15T05:43:57;34.30;;;13.43;;
11078;SDS011;5592;49.234;7.268;2024-01-15T05:46:23;29.67;;;12.27;;
11078;SDS011;5592;49.234;7.268;2024-01-15T05:48:48;35.13;;;13.93;;
11078;SDS011;5592;49.234;7.268;2024-01-15T05:51:14;24.33;;;12.20;;
11078;SDS011;5592;49.234;7.268;2024-01-15T05:53:40;32.23;;;13.80;;
11078;SDS011;5592;49.234;7.268;2024-01-15T05:56:07;25.70;;;12.00;;
11078;SDS011;5592;49.234;7.268;2024-01-15T05:58:35;28.63;;;9.90;;
11078;SDS011;5592;49.234;7.268;2024-01-15T06:01:00;29.33;;;12.27;;
11078;SDS011;5592;49.234;7.268;2024-01-15T06:03:26;33.40;;;13.10;;
11078;SDS011;5592;49.234;7.268;2024-01-15T06:05:52;29.33;;;11.40;;
11078;SDS011;5592;49.234;7.268;2024-01-15T06:08:18;35.50;;;12.70;;
11078;SDS011;5592;49.234;7.268;2024-01-15T06:10:46;27.13;;;11.30;;
11078;SDS011;5592;49.234;7.268;2024-01-15T06:13:11;33.63;;;13.50;;
11078;SDS011;5592;49.234;7.268;2024-01-15T06:15:40;30.83;;;12.50;;
11078;SDS011;5592;49.234;7.268;2024-01-15T06:18:07;36.43;;;13.37;;
11078;SDS011;5592;49.234;7.268;2024-01-15T06:20:32;30.33;;;13.70;;
11078;SDS011;5592;49.234;7.268;2024-01-15T06:22:58;32.07;;;12.97;;
11078;SDS011;5592;49.234;7.268;2024-01-15T06:25:24;28.23;;;11.67;;
11078;SDS011;5592;49.234;7.268;2024-01-15T06:27:49;37.57;;;14.50;;
11078;SDS011;5592;49.234;7.268;2024-01-15T06:30:15;40.57;;;13.30;;
11078;SDS011;5592;49.234;7.268;2024-01-15T06:32:40;31.53;;;12.53;;
11078;SDS011;5592;49.234;7.268;2024-01-15T06:35:06;29.70;;;12.80;;
11078;SDS011;5592;49.234;7.268;2024-01-15T06:37:32;34.93;;;14.73;;
11078;SDS011;5592;49.234;7.268;2024-01-15T06:40:00;31.97;;;14.20;;
11078;SDS011;5592;49.234;7.268;2024-01-15T06:42:26;31.30;;;13.20;;
11078;SDS011;5592;49.234;7.268;2024-01-15T06:44:51;34.43;;;13.37;;
11078;SDS011;5592;49.234;7.268;2024-01-15T06:47:17;35.03;;;12.93;;
11078;SDS011;5592;49.234;7.268;2024-01-15T06:49:43;38.80;;;14.60;;
11078;SDS011;5592;49.234;7.268;2024-01-15T06:52:08;35.20;;;13.27;;
11078;SDS011;5592;49.234;7.268;2024-01-15T06:54:34;32.90;;;14.10;;
11078;SDS011;5592;49.234;7.268;2024-01-15T06:57:00;35.43;;;13.77;;
11078;SDS011;5592;49.234;7.268;2024-01-15T06:59:26;30.53;;;13.57;;
11078;SDS011;5592;49.234;7.268;2024-01-15T07:01:51;38.93;;;14.60;;
11078;SDS011;5592;49.234;7.268;2024-01-15T07:04:17;34.47;;;12.80;;
11078;SDS011;5592;49.234;7.268;2024-01-15T07:06:43;37.40;;;14.07;;
11078;SDS011;5592;49.234;7.268;2024-01-15T07:09:13;33.50;;;13.43;;
11078;SDS011;5592;49.234;7.268;2024-01-15T07:11:44;30.87;;;14.03;;
11078;SDS011;5592;49.234;7.268;2024-01-15T07:14:11;37.23;;;15.43;;
11078;SDS011;5592;49.234;7.268;2024-01-15T07:16:37;28.77;;;12.97;;
11078;SDS011;5592;49.234;7.268;2024-01-15T07:19:02;34.13;;;12.30;;
11078;SDS011;5592;49.234;7.268;2024-01-15T07:21:29;32.77;;;14.80;;
11078;SDS011;5592;49.234;7.268;2024-01-15T07:23:55;30.20;;;12.90;;
11078;SDS011;5592;49.234;7.268;2024-01-15T07:26:20;35.20;;;13.10;;
11078;SDS011;5592;49.234;7.268;2024-01-15T07:28:46;27.00;;;13.13;;
11078;SDS011;5592;49.234;7.268;2024-01-15T07:31:12;30.73;;;11.60;;
11078;SDS011;5592;49.234;7.268;2024-01-15T07:33:37;36.53;;;13.27;;
11078;SDS011;5592;49.234;7.268;2024-01-15T07:36:03;36.07;;;12.30;;
11078;SDS011;5592;49.234;7.268;2024-01-15T07:38:31;30.57;;;13.67;;
11078;SDS011;5592;49.234;7.268;2024-01-15T07:40:57;37.27;;;14.07;;
11078;SDS011;5592;49.234;7.268;2024-01-15T07:43:23;32.60;;;13.30;;
11078;SDS011;5592;49.234;7.268;2024-01-15T07:45:48;30.87;;;13.90;;
11078;SDS011;5592;49.234;7.268;2024-01-15T07:48:15;38.13;;;15.27;;
11078;SDS011;5592;49.234;7.268;2024-01-15T07:50:44;35.47;;;14.13;;
11078;SDS011;5592;49.234;7.268;2024-01-15T07:53:09;32.63;;;15.27;;
11078;SDS011;5592;49.234;7.268;2024-01-15T07:55:35;35.77;;;15.10;;
11078;SDS011;5592;49.234;7.268;2024-01-15T07:58:01;40.17;;;14.67;;
11078;SDS011;5592;49.234;7.268;2024-01-15T08:00:28;33.27;;;13.67;;
11078;SDS011;5592;49.234;7.268;2024-01-15T08:02:54;31.57;;;13.10;;
11078;SDS011;5592;49.234;7.268;2024-01-15T08:05:19;34.77;;;13.97;;
11078;SDS011;5592;49.234;7.268;2024-01-15T08:07:45;38.00;;;16.10;;
11078;SDS011;5592;49.234;7.268;2024-01-15T08:10:12;32.60;;;14.10;;
11078;SDS011;5592;49.234;7.268;2024-01-15T08:12:39;38.43;;;15.93;;
11078;SDS011;5592;49.234;7.268;2024-01-15T08:15:06;35.63;;;13.73;;
11078;SDS011;5592;49.234;7.268;2024-01-15T08:17:31;33.13;;;14.60;;
11078;SDS011;5592;49.234;7.268;2024-01-15T08:19:58;38.60;;;14.30;;
11078;SDS011;5592;49.234;7.268;2024-01-15T08:22:25;30.17;;;12.87;;
11078;SDS011;5592;49.234;7.268;2024-01-15T08:24:51;34.43;;;14.57;;
11078;SDS011;5592;49.234;7.268;2024-01-15T08:27:20;30.57;;;12.87;;
11078;SDS011;5592;49.234;7.268;2024-01-15T08:29:46;35.37;;;15.57;;
11078;SDS011;5592;49.234;7.268;2024-01-15T08:32:15;34.40;;;15.03;;
11078;SDS011;5592;49.234;7.268;2024-01-15T08:34:41;33.53;;;14.53;;
11078;SDS011;5592;49.234;7.268;2024-01-15T08:37:08;38.90;;;14.83;;
11078;SDS011;5592;49.234;7.268;2024-01-15T08:39:37;29.33;;;13.83;;
11078;SDS011;5592;49.234;7.268;2024-01-15T08:42:05;28.23;;;13.90;;
11078;SDS011;5592;49.234;7.268;2024-01-15T08:44:31;27.87;;;14.27;;
11078;SDS011;5592;49.234;7.268;2024-01-15T08:46:57;33.43;;;15.70;;
11078;SDS011;5592;49.234;7.268;2024-01-15T08:49:22;31.73;;;14.30;;
11078;SDS011;5592;49.234;7.268;2024-01-15T08:51:48;30.33;;;12.97;;
11078;SDS011;5592;49.234;7.268;2024-01-15T08:54:14;31.30;;;14.13;;
11078;SDS011;5592;49.234;7.268;2024-01-15T08:56:40;36.80;;;13.93;;
11078;SDS011;5592;49.234;7.268;2024-01-15T08:59:08;36.17;;;14.07;;
11078;SDS011;5592;49.234;7.268;2024-01-15T09:01:36;27.73;;;13.17;;
11078;SDS011;5592;49.234;7.268;2024-01-15T09:04:03;32.00;;;14.57;;
11078;SDS011;5592;49.234;7.268;2024-01-15T09:06:29;35.07;;;14.53;;
11078;SDS011;5592;49.234;7.268;2024-01-15T09:08:55;27.60;;;13.17;;
11078;SDS011;5592;49.234;7.268;2024-01-15T09:11:20;27.40;;;12.60;;
11078;SDS011;5592;49.234;7.268;2024-01-15T09:13:48;30.13;;;13.23;;
11078;SDS011;5592;49.234;7.268;2024-01-15T09:16:13;35.73;;;13.10;;
11078;SDS011;5592;49.234;7.268;2024-01-15T09:18:39;28.40;;;13.83;;
11078;SDS011;5592;49.234;7.268;2024-01-15T09:21:04;24.23;;;12.60;;
11078;SDS011;5592;49.234;7.268;2024-01-15T09:23:31;27.43;;;13.90;;
11078;SDS011;5592;49.234;7.268;2024-01-15T09:25:56;31.13;;;13.73;;
11078;SDS011;5592;49.234;7.268;2024-01-15T09:28:23;24.93;;;12.53;;
11078;SDS011;5592;49.234;7.268;2024-01-15T09:30:49;27.27;;;12.70;;
11078;SDS011;5592;49.234;7.268;2024-01-15T09:33:15;30.47;;;14.20;;
11078;SDS011;5592;49.234;7.268;2024-01-15T09:35:42;24.27;;;12.60;;
11078;SDS011;5592;49.234;7.268;2024-01-15T09:38:09;24.53;;;12.43;;
11078;SDS011;5592;49.234;7.268;2024-01-15T09:40:34;22.23;;;12.40;;
11078;SDS011;5592;49.234;7.268;2024-01-15T09:43:05;33.00;;;13.13;;
11078;SDS011;5592;49.234;7.268;2024-01-15T09:45:31;32.77;;;14.30;;
11078;SDS011;5592;49.234;7.268;2024-01-15T09:48:03;24.33;;;13.00;;
11078;SDS011;5592;49.234;7.268;2024-01-15T09:50:28;24.93;;;11.70;;
11078;SDS011;5592;49.234;7.268;2024-01-15T09:52:55;29.00;;;12.03;;
11078;SDS011;5592;49.234;7.268;2024-01-15T09:55:22;29.30;;;12.53;;
11078;SDS011;5592;49.234;7.268;2024-01-15T09:57:48;27.97;;;13.80;;
11078;SDS011;5592;49.234;7.268;2024-01-15T10:00:20;25.30;;;12.07;;
11078;SDS011;5592;49.234;7.268;2024-01-15T10:02:48;28.60;;;12.80;;
11078;SDS011;5592;49.234;7.268;2024-01-15T10:05:24;29.23;;;12.87;;
11078;SDS011;5592;49.234;7.268;2024-01-15T10:07:53;31.33;;;13.03;;
11078;SDS011;5592;49.234;7.268;2024-01-15T10:10:24;30.23;;;12.00;;
11078;SDS011;5592;49.234;7.268;2024-01-15T10:12:51;27.47;;;12.20;;
11078;SDS011;5592;49.234;7.268;2024-01-15T10:15:21;25.47;;;12.00;;
11078;SDS011;5592;49.234;7.268;2024-01-15T10:17:48;24.90;;;12.10;;
11078;SDS011;5592;49.234;7.268;2024-01-15T10:20:14;25.23;;;13.17;;
11078;SDS011;5592;49.234;7.268;2024-01-15T10:22:43;24.53;;;12.80;;
11078;SDS011;5592;49.234;7.268;2024-01-15T10:25:11;21.50;;;11.70;;
11078;SDS011;5592;49.234;7.268;2024-01-15T10:27:38;22.13;;;11.83;;
11078;SDS011;5592;49.234;7.268;2024-01-15T10:30:06;26.90;;;12.90;;
11078;SDS011;5592;49.234;7.268;2024-01-15T10:32:35;28.37;;;13.13;;
11078;SDS011;5592;49.234;7.268;2024-01-15T10:35:01;26.37;;;10.53;;
11078;SDS011;5592;49.234;7.268;2024-01-15T10:37:38;23.10;;;12.40;;
11078;SDS011;5592;49.234;7.268;2024-01-15T10:40:16;22.63;;;11.20;;
11078;SDS011;5592;49.234;7.268;2024-01-15T10:42:44;24.37;;;11.50;;
11078;SDS011;5592;49.234;7.268;2024-01-15T10:45:09;21.40;;;11.30;;
11078;SDS011;5592;49.234;7.268;2024-01-15T10:47:44;24.97;;;10.83;;
11078;SDS011;5592;49.234;7.268;2024-01-15T10:50:12;21.90;;;9.90;;
11078;SDS011;5592;49.234;7.268;2024-01-15T10:52:40;17.27;;;9.37;;
11078;SDS011;5592;49.234;7.268;2024-01-15T10:55:08;18.17;;;7.77;;
11078;SDS011;5592;49.234;7.268;2024-01-15T10:57:34;18.93;;;9.03;;
11078;SDS011;5592;49.234;7.268;2024-01-15T11:00:04;13.83;;;6.93;;
11078;SDS011;5592;49.234;7.268;2024-01-15T11:02:34;14.50;;;7.73;;
11078;SDS011;5592;49.234;7.268;2024-01-15T11:05:01;17.10;;;8.30;;
11078;SDS011;5592;49.234;7.268;2024-01-15T11:07:29;15.20;;;8.10;;
11078;SDS011;5592;49.234;7.268;2024-01-15T11:09:56;15.03;;;7.80;;
11078;SDS011;5592;49.234;7.268;2024-01-15T11:12:25;17.30;;;8.00;;
11078;SDS011;5592;49.234;7.268;2024-01-15T11:15:01;14.13;;;6.97;;
11078;SDS011;5592;49.234;7.268;2024-01-15T11:18:11;16.77;;;7.83;;
11078;SDS011;5592;49.234;7.268;2024-01-15T11:20:26;14.63;;;7.13;;
11078;SDS011;5592;49.234;7.268;2024-01-15T11:22:53;13.97;;;6.60;;
11078;SDS011;5592;49.234;7.268;2024-01-15T11:25:22;12.30;;;6.63;;
11078;SDS011;5592;49.234;7.268;2024-01-15T11:27:51;13.07;;;7.43;;
11078;SDS011;5592;49.234;7.268;2024-01-15T11:30:18;12.83;;;6.83;;
11078;SDS011;5592;49.234;7.268;2024-01-15T11:32:45;12.03;;;7.53;;
11078;SDS011;5592;49.234;7.268;2024-01-15T11:35:12;10.60;;;7.03;;
11078;SDS011;5592;49.234;7.268;2024-01-15T11:42:58;13.70;;;6.13;;
11078;SDS011;5592;49.234;7.268;2024-01-15T11:45:25;16.77;;;8.40;;
11078;SDS011;5592;49.234;7.268;2024-01-15T11:50:40;14.40;;;7.20;;
11078;SDS011;5592;49.234;7.268;2024-01-15T11:53:10;13.43;;;7.47;;
11078;SDS011;5592;49.234;7.268;2024-01-15T11:55:43;12.37;;;6.60;;
11078;SDS011;5592;49.234;7.268;2024-01-15T11:58:10;18.40;;;7.43;;
11078;SDS011;5592;49.234;7.268;2024-01-15T12:00:43;16.70;;;7.20;;
11078;SDS011;5592;49.234;7.268;2024-01-15T12:03:20;14.57;;;7.07;;
11078;SDS011;5592;49.234;7.268;2024-01-15T12:05:49;11.90;;;6.73;;
11078;SDS011;5592;49.234;7.268;2024-01-15T12:08:20;11.93;;;7.23;;
11078;SDS011;5592;49.234;7.268;2024-01-15T12:10:53;11.87;;;7.30;;
11078;SDS011;5592;49.234;7.268;2024-01-15T12:13:24;14.40;;;7.20;;
11078;SDS011;5592;49.234;7.268;2024-01-15T12:15:49;13.60;;;7.50;;
11078;SDS011;5592;49.234;7.268;2024-01-15T12:18:16;13.30;;;6.90;;
11078;SDS011;5592;49.234;7.268;2024-01-15T12:20:43;11.90;;;7.03;;
11078;SDS011;5592;49.234;7.268;2024-01-15T12:23:11;12.53;;;7.07;;
11078;SDS011;5592;49.234;7.268;2024-01-15T12:25:38;12.70;;;7.37;;
11078;SDS011;5592;49.234;7.268;2024-01-15T12:28:04;13.40;;;7.40;;
11078;SDS011;5592;49.234;7.268;2024-01-15T12:30:32;13.00;;;6.20;;
11078;SDS011;5592;49.234;7.268;2024-01-15T12:33:05;13.20;;;7.50;;
11078;SDS011;5592;49.234;7.268;2024-01-15T12:35:33;17.77;;;8.00;;
11078;SDS011;5592;49.234;7.268;2024-01-15T12:38:00;15.13;;;7.90;;
11078;SDS011;5592;49.234;7.268;2024-01-15T12:40:29;16.50;;;8.30;;
11078;SDS011;5592;49.234;7.268;2024-01-15T12:42:55;13.40;;;7.63;;
11078;SDS011;5592;49.234;7.268;2024-01-15T12:45:30;15.63;;;8.20;;
11078;SDS011;5592;49.234;7.268;2024-01-15T12:47:56;10.33;;;6.77;;
11078;SDS011;5592;49.234;7.268;2024-01-15T12:50:24;12.37;;;6.73;;
11078;SDS011;5592;49.234;7.268;2024-01-15T12:52:51;13.10;;;7.90;;
11078;SDS011;5592;49.234;7.268;2024-01-15T12:55:16;11.57;;;6.83;;
11078;SDS011;5592;49.234;7.268;2024-01-15T12:57:42;12.17;;;6.80;;
11078;SDS011;5592;49.234;7.268;2024-01-15T13:00:08;13.93;;;6.60;;
11078;SDS011;5592;49.234;7.268;2024-01-15T13:02:37;13.83;;;7.77;;
11078;SDS011;5592;49.234;7.268;2024-01-15T13:05:09;10.13;;;6.57;;
11078;SDS011;5592;49.234;7.268;2024-01-15T13:07:38;13.17;;;6.43;;
11078;SDS011;5592;49.234;7.268;2024-01-15T13:10:04;14.40;;;7.33;;
11078;SDS011;5592;49.234;7.268;2024-01-15T13:12:30;14.37;;;6.67;;
11078;SDS011;5592;49.234;7.268;2024-01-15T13:14:57;13.30;;;7.03;;
11078;SDS011;5592;49.234;7.268;2024-01-15T13:17:23;13.13;;;6.60;;
11078;SDS011;5592;49.234;7.268;2024-01-15T13:19:49;12.70;;;6.80;;
11078;SDS011;5592;49.234;7.268;2024-01-15T13:22:14;11.20;;;6.37;;
11078;SDS011;5592;49.234;7.268;2024-01-15T13:24:43;13.90;;;7.10;;
11078;SDS011;5592;49.234;7.268;2024-01-15T13:27:09;10.43;;;6.00;;
11078;SDS011;5592;49.234;7.268;2024-01-15T13:29:37;11.37;;;6.50;;
11078;SDS011;5592;49.234;7.268;2024-01-15T13:32:03;11.73;;;7.00;;
11078;SDS011;5592;49.234;7.268;2024-01-15T13:34:30;9.77;;;6.50;;
11078;SDS011;5592;49.234;7.268;2024-01-15T13:36:55;9.63;;;5.83;;
11078;SDS011;5592;49.234;7.268;2024-01-15T13:39:22;11.80;;;5.93;;
11078;SDS011;5592;49.234;7.268;2024-01-15T13:41:48;12.20;;;6.27;;
11078;SDS011;5592;49.234;7.268;2024-01-15T13:44:14;10.40;;;5.23;;
11078;SDS011;5592;49.234;7.268;2024-01-15T13:46:40;17.17;;;6.23;;
11078;SDS011;5592;49.234;7.268;2024-01-15T13:49:06;14.83;;;6.73;;
11078;SDS011;5592;49.234;7.268;2024-01-15T13:51:34;10.97;;;5.80;;
11078;SDS011;5592;49.234;7.268;2024-01-15T13:54:01;9.50;;;5.33;;
11078;SDS011;5592;49.234;7.268;2024-01-15T13:56:29;9.30;;;6.07;;
11078;SDS011;5592;49.234;7.268;2024-01-15T13:58:57;10.37;;;6.33;;
11078;SDS011;5592;49.234;7.268;2024-01-15T14:01:23;18.20;;;6.73;;
11078;SDS011;5592;49.234;7.268;2024-01-15T14:03:49;11.30;;;6.30;;
11078;SDS011;5592;49.234;7.268;2024-01-15T14:06:15;11.53;;;5.87;;
11078;SDS011;5592;49.234;7.268;2024-01-15T14:08:40;12.07;;;6.37;;
11078;SDS011;5592;49.234;7.268;2024-01-15T14:11:06;13.40;;;6.70;;
11078;SDS011;5592;49.234;7.268;2024-01-15T14:13:33;14.00;;;6.80;;
11078;SDS011;5592;49.234;7.268;2024-01-15T14:15:59;16.67;;;7.40;;
11078;SDS011;5592;49.234;7.268;2024-01-15T14:18:25;12.20;;;6.40;;
11078;SDS011;5592;49.234;7.268;2024-01-15T14:20:51;10.50;;;6.90;;
11078;SDS011;5592;49.234;7.268;2024-01-15T14:23:18;13.30;;;7.23;;
11078;SDS011;5592;49.234;7.268;2024-01-15T14:25:44;12.87;;;7.43;;
11078;SDS011;5592;49.234;7.268;2024-01-15T14:28:10;12.60;;;6.93;;
11078;SDS011;5592;49.234;7.268;2024-01-15T14:30:36;15.37;;;7.20;;
11078;SDS011;5592;49.234;7.268;2024-01-15T14:33:01;9.00;;;5.87;;
11078;SDS011;5592;49.234;7.268;2024-01-15T14:35:29;11.30;;;6.30;;
11078;SDS011;5592;49.234;7.268;2024-01-15T14:37:55;9.73;;;6.17;;
11078;SDS011;5592;49.234;7.268;2024-01-15T14:40:20;8.83;;;5.67;;
11078;SDS011;5592;49.234;7.268;2024-01-15T14:42:46;10.33;;;6.53;;